Terminal Aerodrome Forecast
Issued by NWS

Home | Current Version | Previous Version | Text Only | Print | Product List | Glossary On
Versions: 1 2 3 4 5 6 7 8 9 10 11 12 13 14 15 16 17 18 19 20 21 22 23
000
FTUS44 KOUN 232320
TAFPNC
TAF
KPNC 232320Z 2400/2424 17014G18KT P6SM SCT100 BKN250
     FM240700 18013KT P6SM BKN100 PROB30 2409/2412 -TSRA BKN100CB
     FM241700 15010KT P6SM BKN250=

USA.gov is the U.S. government's official web portal to all federal, state and local government web resources and services.